createdAt,value
2023-05-28T00:01:36.948Z,83.20
2023-05-28T00:04:12.329Z,84.30
2023-05-28T00:06:49.363Z,84.57
2023-05-28T00:09:23.349Z,84.45
2023-05-28T00:11:58.966Z,83.89
2023-05-28T00:14:35.170Z,83.94
2023-05-28T00:17:10.770Z,86.43
2023-05-28T00:19:45.861Z,86.65
2023-05-28T00:22:21.502Z,85.47
2023-05-28T00:24:58.570Z,88.31
2023-05-28T00:27:32.849Z,87.67
2023-05-28T00:30:08.611Z,87.13
2023-05-28T00:32:44.170Z,91.85
2023-05-28T00:35:19.627Z,98.34
2023-05-28T00:37:55.608Z,92.16
2023-05-28T00:40:31.118Z,93.24
2023-05-28T00:43:07.510Z,98.37
2023-05-28T00:45:42.472Z,100.00
2023-05-28T00:48:18.163Z,93.32
2023-05-28T00:50:54.155Z,92.97
2023-05-28T00:53:29.331Z,91.59
2023-05-28T00:56:05.463Z,90.66
2023-05-28T00:58:41.350Z,90.47
2023-05-28T01:01:17.278Z,91.75
2023-05-28T01:03:52.064Z,90.49
2023-05-28T01:06:29.244Z,90.74
2023-05-28T01:09:03.522Z,92.43
2023-05-28T01:11:40.958Z,92.77
2023-05-28T01:14:15.868Z,92.81
2023-05-28T01:16:50.761Z,92.91
2023-05-28T01:19:27.456Z,91.95
2023-05-28T01:22:06.222Z,92.65
2023-05-28T01:24:37.918Z,92.87
2023-05-28T01:27:13.183Z,92.93
2023-05-28T01:29:48.559Z,93.34
2023-05-28T01:32:25.183Z,92.96
2023-05-28T01:35:00.542Z,94.26
2023-05-28T01:37:41.571Z,93.49
2023-05-28T01:40:12.415Z,93.94
2023-05-28T01:42:47.161Z,93.39
2023-05-28T01:45:23.858Z,92.39
2023-05-28T01:47:58.366Z,93.95
2023-05-28T01:50:34.157Z,93.83
2023-05-28T01:53:09.843Z,94.46
2023-05-28T01:55:45.546Z,93.54
2023-05-28T01:58:21.144Z,93.70
2023-05-28T02:01:07.123Z,95.09
2023-05-28T02:03:43.052Z,95.37
2023-05-28T02:06:08.962Z,95.15
2023-05-28T02:08:43.955Z,96.18
2023-05-28T02:11:19.771Z,95.94
2023-05-28T02:13:55.809Z,96.77
2023-05-28T02:16:31.518Z,95.14
2023-05-28T02:19:07.016Z,95.95
2023-05-28T02:21:42.571Z,95.98
2023-05-28T02:24:18.262Z,95.96
2023-05-28T02:26:54.444Z,95.23
2023-05-28T02:29:30.106Z,95.39
2023-05-28T02:32:06.244Z,95.07
2023-05-28T02:34:42.361Z,94.99
2023-05-28T02:37:17.238Z,95.83
2023-05-28T02:39:52.935Z,95.92
2023-05-28T02:42:28.506Z,96.19
2023-05-28T02:45:04.741Z,94.75
2023-05-28T02:47:39.930Z,95.56
2023-05-28T02:50:15.692Z,95.94
2023-05-28T02:52:51.369Z,96.54
2023-05-28T02:55:26.932Z,95.10
2023-05-28T02:58:03.440Z,95.82
2023-05-28T03:00:38.158Z,95.21
2023-05-28T03:03:13.886Z,96.27
2023-05-28T03:05:49.594Z,97.05
2023-05-28T03:08:25.621Z,96.96
2023-05-28T03:11:01.118Z,96.68
2023-05-28T03:13:36.723Z,96.79
2023-05-28T03:16:12.725Z,95.41
2023-05-28T03:18:48.627Z,96.62
2023-05-28T03:21:24.248Z,96.81
2023-05-28T03:23:59.940Z,97.14
2023-05-28T03:26:36.545Z,97.94
2023-05-28T03:29:11.511Z,98.17
2023-05-28T03:31:47.354Z,98.21
2023-05-28T03:34:23.877Z,98.22
2023-05-28T03:36:58.380Z,97.88
2023-05-28T03:39:34.240Z,97.39
2023-05-28T03:42:09.945Z,97.48
2023-05-28T03:44:45.535Z,98.03
2023-05-28T03:47:22.389Z,97.88
2023-05-28T03:49:58.636Z,98.85
2023-05-28T03:52:35.296Z,98.27
2023-05-28T03:55:08.740Z,98.38
2023-05-28T03:57:43.970Z,98.57
2023-05-28T04:00:19.795Z,97.45
2023-05-28T04:02:55.398Z,99.05
2023-05-28T04:05:31.247Z,98.24
2023-05-28T04:08:06.573Z,100.00
2023-05-28T04:10:42.492Z,99.81
2023-05-28T04:13:18.168Z,99.33
2023-05-28T04:15:53.965Z,99.36
2023-05-28T04:18:29.968Z,100.00
2023-05-28T04:21:07.273Z,99.92
2023-05-28T04:23:41.862Z,99.78
2023-05-28T04:26:20.876Z,99.89
2023-05-28T04:28:53.505Z,99.73
2023-05-28T04:31:29.405Z,99.88
2023-05-28T04:34:05.034Z,99.88
2023-05-28T04:36:41.566Z,99.89
2023-05-28T04:39:16.263Z,100.00
2023-05-28T04:41:53.842Z,100.00
2023-05-28T04:44:30.954Z,100.00
2023-05-28T04:47:05.489Z,100.00
2023-05-28T04:49:41.250Z,100.00
2023-05-28T04:52:19.912Z,100.00
2023-05-28T04:54:52.605Z,100.00
2023-05-28T04:57:28.249Z,100.00
2023-05-28T05:00:04.441Z,99.62
2023-05-28T05:02:42.775Z,98.83
2023-05-28T05:05:15.755Z,99.22
2023-05-28T05:07:52.385Z,98.90
2023-05-28T05:10:26.839Z,98.32
2023-05-28T05:13:02.496Z,98.38
2023-05-28T05:15:38.114Z,97.96
2023-05-28T05:18:13.887Z,97.98
2023-05-28T05:20:49.935Z,96.88
2023-05-28T05:23:25.150Z,97.56
2023-05-28T05:26:01.374Z,97.21
2023-05-28T05:28:37.420Z,96.52
2023-05-28T05:31:12.687Z,97.00
2023-05-28T05:33:48.315Z,97.18
2023-05-28T05:36:23.919Z,93.81
2023-05-28T05:38:59.914Z,94.52
2023-05-28T05:41:35.464Z,97.27
2023-05-28T05:44:11.098Z,92.95
2023-05-28T05:46:47.052Z,92.65
2023-05-28T05:49:22.628Z,98.42
2023-05-28T05:51:58.556Z,92.13
2023-05-28T05:54:34.488Z,88.44
2023-05-28T05:57:10.379Z,94.86
2023-05-28T05:59:46.312Z,96.57
2023-05-28T06:02:21.981Z,94.18
2023-05-28T06:04:57.651Z,93.07
2023-05-28T06:07:33.320Z,90.51
2023-05-28T06:10:09.273Z,93.14
2023-05-28T06:12:45.405Z,89.68
2023-05-28T06:15:20.403Z,93.37
2023-05-28T06:17:56.461Z,89.37
2023-05-28T06:20:32.389Z,85.42
2023-05-28T06:23:07.959Z,85.44
2023-05-28T06:25:44.338Z,86.57
2023-05-28T06:28:19.988Z,87.51
2023-05-28T06:30:55.939Z,88.35
2023-05-28T06:33:31.569Z,93.18
2023-05-28T06:36:07.481Z,91.33
2023-05-28T06:38:42.810Z,90.29
2023-05-28T06:41:18.733Z,94.43
2023-05-28T06:43:54.341Z,90.75
2023-05-28T06:46:31.150Z,87.96
2023-05-28T06:49:05.892Z,87.68
2023-05-28T06:51:41.346Z,81.68
2023-05-28T06:54:17.409Z,84.12
2023-05-28T06:56:53.363Z,86.67
2023-05-28T06:59:29.421Z,86.36
2023-05-28T07:02:05.800Z,83.72
2023-05-28T07:04:42.062Z,80.84
2023-05-28T07:07:17.563Z,80.54
2023-05-28T07:09:53.050Z,80.89
2023-05-28T07:12:28.795Z,82.90
2023-05-28T07:15:04.849Z,78.28
2023-05-28T07:17:40.959Z,73.36
2023-05-28T07:20:16.712Z,69.65
2023-05-28T07:22:52.029Z,72.87
2023-05-28T07:25:27.928Z,70.90
2023-05-28T07:28:03.824Z,68.07
2023-05-28T07:30:41.487Z,69.18
2023-05-28T07:33:15.953Z,67.26
2023-05-28T07:35:51.220Z,69.92
2023-05-28T07:38:26.674Z,64.54
2023-05-28T07:41:02.260Z,63.87
2023-05-28T07:43:37.939Z,63.28
2023-05-28T07:46:14.710Z,63.15
2023-05-28T07:48:50.302Z,61.75
2023-05-28T07:51:26.818Z,60.99
2023-05-28T07:54:00.720Z,60.98
2023-05-28T07:56:36.486Z,61.09
2023-05-28T07:59:13.750Z,61.56
2023-05-28T08:01:47.866Z,62.07
2023-05-28T08:04:23.180Z,61.49
2023-05-28T08:06:59.138Z,61.38
2023-05-28T08:09:34.983Z,59.35
2023-05-28T08:12:10.981Z,59.61
2023-05-28T08:14:46.072Z,60.26
2023-05-28T08:17:22.781Z,61.65
2023-05-28T08:20:01.660Z,58.25
2023-05-28T08:22:38.833Z,57.29
2023-05-28T08:25:08.876Z,57.38
2023-05-28T08:27:44.194Z,57.64
2023-05-28T08:30:20.047Z,55.60
2023-05-28T08:32:55.614Z,55.46
2023-05-28T08:35:31.254Z,55.78
2023-05-28T08:38:07.079Z,55.28
2023-05-28T08:40:44.824Z,54.49
2023-05-28T08:43:18.695Z,53.99
2023-05-28T08:45:54.480Z,53.67
2023-05-28T08:48:33.620Z,54.11
2023-05-28T08:51:06.547Z,55.68
2023-05-28T08:53:44.427Z,54.94
2023-05-28T08:56:18.264Z,55.41
2023-05-28T08:58:52.411Z,53.08
2023-05-28T09:01:28.191Z,52.80
2023-05-28T09:04:04.126Z,52.90
2023-05-28T09:06:39.709Z,51.39
2023-05-28T09:09:14.843Z,53.54
2023-05-28T09:11:50.639Z,53.23
2023-05-28T09:14:26.067Z,51.77
2023-05-28T09:17:01.776Z,52.67
2023-05-28T09:19:37.390Z,49.88
2023-05-28T09:22:13.471Z,50.07
2023-05-28T09:24:49.910Z,48.44
2023-05-28T09:27:24.374Z,48.07
2023-05-28T09:30:18.149Z,48.51
2023-05-28T09:33:03.895Z,47.92
2023-05-28T09:35:39.896Z,46.96
2023-05-28T09:38:16.057Z,45.60
2023-05-28T09:40:55.594Z,45.19
2023-05-28T09:43:31.628Z,47.38
2023-05-28T09:46:08.408Z,47.08
2023-05-28T09:48:44.375Z,47.53
2023-05-28T09:51:21.281Z,46.70
2023-05-28T09:53:59.480Z,43.86
2023-05-28T09:56:38.505Z,43.01
2023-05-28T09:59:15.903Z,42.04
2023-05-28T10:01:56.765Z,43.74
2023-05-28T10:04:37.522Z,40.99
2023-05-28T10:07:13.500Z,40.74
2023-05-28T10:09:51.350Z,40.70
2023-05-28T10:12:29.499Z,43.35
2023-05-28T10:15:07.232Z,42.23
2023-05-28T10:17:43.801Z,41.44
2023-05-28T10:20:19.845Z,38.26
2023-05-28T10:22:56.079Z,40.22
2023-05-28T10:25:32.396Z,40.74
2023-05-28T10:28:08.353Z,38.83
2023-05-28T10:30:44.311Z,38.98
2023-05-28T10:33:20.602Z,38.50
2023-05-28T10:35:59.934Z,38.58
2023-05-28T10:38:41.935Z,38.56
2023-05-28T10:41:21.749Z,38.20
2023-05-28T10:44:05.660Z,38.67
2023-05-28T10:46:41.664Z,38.21
2023-05-28T10:49:18.649Z,38.62
2023-05-28T10:52:02.455Z,37.05
2023-05-28T10:54:45.554Z,37.46
2023-05-28T10:57:21.793Z,37.46
2023-05-28T11:00:07.304Z,35.82
2023-05-28T11:02:44.477Z,36.01
2023-05-28T11:05:25.409Z,38.19
2023-05-28T11:08:01.659Z,37.91
2023-05-28T11:10:38.027Z,38.29
2023-05-28T11:13:16.198Z,38.99
2023-05-28T11:15:52.398Z,39.14
2023-05-28T11:18:28.479Z,37.93
2023-05-28T11:21:09.382Z,38.02
2023-05-28T11:23:59.190Z,38.46
2023-05-28T11:26:35.122Z,39.13
2023-05-28T11:29:13.409Z,39.56
2023-05-28T11:31:49.433Z,39.28
2023-05-28T11:34:26.142Z,39.61
2023-05-28T11:37:02.055Z,38.93
2023-05-28T11:39:39.670Z,39.25
2023-05-28T11:42:16.693Z,38.32
2023-05-28T11:44:52.941Z,37.86
2023-05-28T11:47:32.423Z,37.47
2023-05-28T11:50:12.625Z,37.53
2023-05-28T11:52:49.820Z,39.61
2023-05-28T11:55:27.217Z,38.89
2023-05-28T11:58:01.381Z,39.08
2023-05-28T12:00:38.320Z,40.15
2023-05-28T12:03:13.309Z,38.88
2023-05-28T12:05:49.318Z,37.87
2023-05-28T12:08:27.192Z,38.57
2023-05-28T12:11:04.344Z,38.50
2023-05-28T12:13:39.645Z,38.33
2023-05-28T12:16:15.885Z,37.65
2023-05-28T12:18:50.948Z,37.75
2023-05-28T12:21:26.475Z,35.47
2023-05-28T12:24:14.254Z,37.92
2023-05-28T12:26:43.404Z,36.75
2023-05-28T12:29:13.787Z,35.62
2023-05-28T12:32:00.583Z,35.46
2023-05-28T12:34:36.504Z,35.77
2023-05-28T12:37:12.424Z,36.16
2023-05-28T12:39:38.389Z,35.03
2023-05-28T12:42:12.770Z,35.16
2023-05-28T12:44:48.461Z,34.51
2023-05-28T12:47:24.063Z,33.82
2023-05-28T12:49:59.713Z,33.03
2023-05-28T12:52:35.317Z,34.40
2023-05-28T12:55:15.283Z,33.47
2023-05-28T12:57:46.579Z,32.97
2023-05-28T13:00:24.586Z,33.66
2023-05-28T13:02:58.249Z,33.64
2023-05-28T13:05:34.468Z,33.69
2023-05-28T13:08:09.231Z,34.58
2023-05-28T13:10:44.831Z,34.45
2023-05-28T13:13:20.575Z,34.30
2023-05-28T13:15:56.105Z,32.89
2023-05-28T13:18:31.632Z,33.25
2023-05-28T13:21:07.262Z,32.49
2023-05-28T13:23:42.911Z,31.42
2023-05-28T13:26:18.550Z,31.96
2023-05-28T13:28:54.203Z,31.37
2023-05-28T13:31:30.035Z,32.03
2023-05-28T13:34:05.451Z,32.26
2023-05-28T13:36:41.029Z,32.36
2023-05-28T13:39:16.768Z,32.60
2023-05-28T13:41:52.463Z,33.08
2023-05-28T13:44:29.341Z,32.61
2023-05-28T13:47:05.572Z,32.87
2023-05-28T13:49:39.213Z,31.77
2023-05-28T13:52:14.981Z,33.18
2023-05-28T13:54:50.505Z,32.63
2023-05-28T13:57:26.412Z,32.39
2023-05-28T14:00:07.408Z,32.16
2023-05-28T14:02:37.799Z,32.15
2023-05-28T14:05:13.262Z,32.02
2023-05-28T14:07:48.895Z,33.00
2023-05-28T14:10:24.615Z,32.72
2023-05-28T14:13:00.330Z,32.78
2023-05-28T14:15:35.811Z,34.28
2023-05-28T14:18:12.269Z,35.18
2023-05-28T14:20:47.110Z,33.40
2023-05-28T14:23:22.779Z,34.73
2023-05-28T14:25:50.625Z,33.30
2023-05-28T14:28:19.515Z,34.03
2023-05-28T14:30:55.561Z,34.16
2023-05-28T14:33:28.829Z,33.68
2023-05-28T14:36:15.399Z,33.48
2023-05-28T14:38:52.376Z,34.53
2023-05-28T14:41:28.275Z,34.25
2023-05-28T14:44:04.139Z,34.65
2023-05-28T14:46:40.209Z,34.42
2023-05-28T14:49:16.231Z,34.38
2023-05-28T14:51:56.341Z,34.66
2023-05-28T14:54:32.256Z,34.08
2023-05-28T14:57:08.136Z,32.87
2023-05-28T14:59:43.130Z,34.44
2023-05-28T15:02:19.435Z,34.07
2023-05-28T15:04:58.117Z,33.71
2023-05-28T15:07:27.913Z,34.21
2023-05-28T15:10:04.525Z,35.41
2023-05-28T15:12:40.477Z,34.97
2023-05-28T15:15:16.464Z,34.81
2023-05-28T15:17:52.644Z,33.56
2023-05-28T15:20:34.131Z,33.83
2023-05-28T15:23:10.273Z,34.87
2023-05-28T15:25:44.393Z,35.02
2023-05-28T15:28:12.329Z,35.06
2023-05-28T15:30:41.244Z,35.58
2023-05-28T15:33:22.079Z,34.47
2023-05-28T15:35:53.198Z,35.99
2023-05-28T15:38:26.593Z,36.02
2023-05-28T15:41:03.125Z,35.34
2023-05-28T15:43:37.824Z,35.64
2023-05-28T15:46:07.752Z,35.16
2023-05-28T15:48:33.604Z,34.56
2023-05-28T15:51:02.544Z,35.97
2023-05-28T15:53:31.110Z,34.88
2023-05-28T15:55:57.437Z,35.07
2023-05-28T15:58:25.039Z,35.47
2023-05-28T16:01:04.524Z,35.52
2023-05-28T16:03:31.529Z,34.29
2023-05-28T16:05:59.084Z,35.45
2023-05-28T16:08:28.161Z,35.73
2023-05-28T16:10:54.257Z,34.51
2023-05-28T16:13:28.252Z,34.75
2023-05-28T16:15:55.354Z,34.50
2023-05-28T16:18:28.752Z,34.57
2023-05-28T16:20:55.409Z,34.67
2023-05-28T16:23:31.725Z,33.87
2023-05-28T16:26:08.173Z,34.13
2023-05-28T16:28:44.184Z,34.40
2023-05-28T16:31:20.407Z,34.34
2023-05-28T16:33:56.404Z,35.26
2023-05-28T16:36:33.972Z,35.10
2023-05-28T16:39:10.117Z,35.53
2023-05-28T16:41:46.326Z,35.35
2023-05-28T16:44:22.401Z,35.78
2023-05-28T16:46:58.928Z,36.04
2023-05-28T16:49:35.833Z,36.93
2023-05-28T16:52:11.875Z,36.85
2023-05-28T16:54:47.783Z,36.85
2023-05-28T16:57:24.306Z,36.46
2023-05-28T17:00:00.227Z,36.22
2023-05-28T17:02:36.234Z,36.67
2023-05-28T17:05:12.334Z,36.37
2023-05-28T17:07:48.956Z,36.67
2023-05-28T17:10:24.861Z,37.29
2023-05-28T17:13:00.748Z,37.84
2023-05-28T17:15:36.633Z,37.63
2023-05-28T17:18:12.655Z,38.05
2023-05-28T17:20:48.808Z,37.36
2023-05-28T17:23:24.979Z,37.77
2023-05-28T17:26:00.987Z,37.86
2023-05-28T17:28:36.902Z,37.72
2023-05-28T17:31:12.842Z,38.74
2023-05-28T17:33:48.979Z,39.18
2023-05-28T17:36:25.109Z,39.38
2023-05-28T17:39:01.160Z,39.15
2023-05-28T17:41:37.067Z,39.14
2023-05-28T17:44:13.235Z,39.18
2023-05-28T17:46:49.133Z,39.10
2023-05-28T17:49:25.165Z,39.16
2023-05-28T17:52:01.037Z,39.69
2023-05-28T17:54:36.919Z,39.74
2023-05-28T17:57:12.885Z,39.64
2023-05-28T17:59:48.819Z,39.52
2023-05-28T18:02:24.778Z,40.11
2023-05-28T18:05:00.942Z,39.74
2023-05-28T18:07:36.845Z,39.67
2023-05-28T18:10:12.735Z,40.20
2023-05-28T18:12:48.630Z,39.69
2023-05-28T18:15:24.516Z,40.41
2023-05-28T18:18:00.688Z,40.74
2023-05-28T18:20:37.579Z,42.08
2023-05-28T18:23:13.787Z,41.58
2023-05-28T18:25:49.680Z,41.73
2023-05-28T18:28:25.825Z,41.91
2023-05-28T18:31:01.757Z,42.40
2023-05-28T18:33:37.811Z,42.27
2023-05-28T18:36:13.696Z,42.34
2023-05-28T18:38:50.865Z,42.19
2023-05-28T18:41:26.833Z,42.57
2023-05-28T18:44:02.765Z,41.74
2023-05-28T18:46:38.846Z,43.11
2023-05-28T18:49:14.954Z,42.54
2023-05-28T18:51:50.923Z,42.38
2023-05-28T18:54:26.912Z,42.22
2023-05-28T18:57:03.076Z,42.91
2023-05-28T18:59:41.352Z,43.24
2023-05-28T19:02:18.194Z,43.19
2023-05-28T19:04:54.312Z,43.17
2023-05-28T19:07:30.315Z,43.36
2023-05-28T19:10:03.656Z,43.12
2023-05-28T19:12:30.581Z,43.24
2023-05-28T19:14:59.080Z,42.90
2023-05-28T19:17:25.106Z,42.85
2023-05-28T19:19:51.245Z,43.46
2023-05-28T19:22:17.133Z,43.95
2023-05-28T19:24:43.293Z,43.74
2023-05-28T19:27:09.282Z,43.90
2023-05-28T19:29:35.219Z,44.49
2023-05-28T19:32:01.206Z,44.34
2023-05-28T19:34:27.226Z,44.94
2023-05-28T19:36:53.192Z,44.72
2023-05-28T19:39:19.237Z,45.12
2023-05-28T19:41:45.201Z,45.36
2023-05-28T19:44:11.581Z,45.58
2023-05-28T19:46:37.612Z,45.91
2023-05-28T19:49:03.581Z,45.96
2023-05-28T19:51:29.528Z,46.11
2023-05-28T19:53:55.771Z,46.29
2023-05-28T19:56:21.725Z,46.45
2023-05-28T19:58:47.696Z,47.09
2023-05-28T20:01:14.121Z,48.50
2023-05-28T20:03:40.623Z,47.97
2023-05-28T20:06:07.120Z,48.64
2023-05-28T20:08:33.566Z,47.87
2023-05-28T20:10:59.633Z,47.22
2023-05-28T20:13:25.778Z,47.21
2023-05-28T20:15:54.720Z,47.39
2023-05-28T20:18:20.781Z,47.95
2023-05-28T20:20:48.511Z,47.69
2023-05-28T20:23:14.708Z,48.73
2023-05-28T20:25:40.758Z,50.96
2023-05-28T20:28:06.696Z,50.83
2023-05-28T20:30:32.652Z,50.62
2023-05-28T20:32:58.990Z,51.51
2023-05-28T20:35:28.178Z,49.67
2023-05-28T20:38:01.573Z,49.67
2023-05-28T20:40:31.880Z,49.57
2023-05-28T20:42:58.137Z,49.65
2023-05-28T20:45:24.142Z,49.81
2023-05-28T20:47:50.072Z,49.56
2023-05-28T20:50:16.224Z,49.58
2023-05-28T20:52:44.526Z,49.98
2023-05-28T20:55:10.552Z,49.94
2023-05-28T20:57:51.342Z,49.57
2023-05-28T21:00:17.670Z,49.63
2023-05-28T21:02:44.902Z,51.16
2023-05-28T21:05:11.403Z,53.34
2023-05-28T21:07:37.862Z,54.83
2023-05-28T21:10:04.109Z,53.45
2023-05-28T21:12:30.002Z,53.30
2023-05-28T21:14:55.913Z,52.86
2023-05-28T21:17:22.227Z,52.59
2023-05-28T21:19:48.182Z,52.42
2023-05-28T21:22:14.337Z,54.67
2023-05-28T21:24:40.243Z,54.55
2023-05-28T21:27:06.583Z,57.26
2023-05-28T21:29:32.435Z,58.08
2023-05-28T21:31:58.296Z,54.34
2023-05-28T21:34:24.214Z,54.34
2023-05-28T21:36:50.178Z,57.88
2023-05-28T21:39:16.092Z,60.42
2023-05-28T21:41:41.968Z,56.68
2023-05-28T21:44:07.849Z,54.99
2023-05-28T21:46:33.728Z,56.87
2023-05-28T21:48:59.808Z,55.01
2023-05-28T21:51:25.818Z,54.31
2023-05-28T21:53:52.033Z,55.77
2023-05-28T21:56:18.092Z,55.19
2023-05-28T21:58:44.118Z,57.13
2023-05-28T22:01:10.558Z,62.56
2023-05-28T22:03:36.742Z,64.31
2023-05-28T22:06:02.764Z,64.00
2023-05-28T22:08:28.629Z,61.71
2023-05-28T22:10:57.288Z,62.55
2023-05-28T22:13:25.282Z,62.69
2023-05-28T22:15:51.294Z,65.88
2023-05-28T22:18:17.323Z,70.91
2023-05-28T22:20:48.686Z,72.03
2023-05-28T22:23:14.579Z,70.40
2023-05-28T22:25:41.494Z,76.69
2023-05-28T22:28:07.633Z,78.17
2023-05-28T22:30:33.656Z,76.51
2023-05-28T22:33:00.443Z,79.26
2023-05-28T22:35:27.957Z,79.84
2023-05-28T22:37:54.495Z,82.74
2023-05-28T22:40:20.810Z,82.94
2023-05-28T22:42:46.723Z,84.79
2023-05-28T22:45:13.751Z,84.27
2023-05-28T22:47:41.010Z,85.51
2023-05-28T22:50:08.273Z,84.94
2023-05-28T22:52:34.217Z,91.57
2023-05-28T22:55:00.144Z,94.86
2023-05-28T22:57:26.079Z,93.25
2023-05-28T22:59:51.984Z,94.12
2023-05-28T23:02:17.905Z,90.91
2023-05-28T23:04:43.897Z,88.32
2023-05-28T23:07:09.927Z,93.03
2023-05-28T23:09:36.077Z,92.78
2023-05-28T23:12:02.332Z,91.88
2023-05-28T23:14:28.212Z,93.51
2023-05-28T23:16:54.155Z,93.38
2023-05-28T23:19:24.317Z,96.49
2023-05-28T23:21:51.205Z,98.17
2023-05-28T23:24:17.152Z,95.97
2023-05-28T23:26:43.060Z,94.11
2023-05-28T23:29:09.598Z,95.75
2023-05-28T23:31:35.579Z,93.18
2023-05-28T23:34:01.979Z,95.75
2023-05-28T23:36:28.449Z,100.00
2023-05-28T23:38:56.064Z,100.00
2023-05-28T23:41:22.321Z,99.97
2023-05-28T23:43:48.259Z,100.00
2023-05-28T23:46:15.378Z,100.00
2023-05-28T23:48:41.487Z,100.00
2023-05-28T23:51:07.410Z,100.00
2023-05-28T23:53:33.317Z,100.00
2023-05-28T23:55:59.387Z,100.00
2023-05-28T23:58:25.508Z,98.01
